VCU/West, Virginia
Current Conditions -  °F | °C
As of 11:54 PM on Sunday 19 Oct 2014 (Local Time) from KRIC Reporting Station
Scattered Clouds Scattered Clouds  
Wind Chill: 44°   Ceiling: Unl
Heat Index: 44°   Visibility: 10mi
Dew Point: 37°   Wind: 0mph
Humidity: 76%   Direction: NA
Pressure: 30.13"   Gusts: NA
Location:  37.549°N, 77.4581°W
Report Text: KRIC 200354Z 00000KT 10SM SCT300 07/03 A3013 RMK AO2 SLP206 T00670028
Loading
Personal Weather Stations






























Interactive Weather Map
Tropical Storm Tracking
New forecast layout! Learn more

10-Day Weather Forecast

Advertisements
Track Severe Weather on mobile